createdAt,value
2023-03-17T00:02:07.346Z,100.00
2023-03-17T00:04:35.360Z,100.00
2023-03-17T00:07:03.582Z,100.00
2023-03-17T00:09:31.641Z,100.00
2023-03-17T00:12:01.844Z,100.00
2023-03-17T00:14:29.891Z,100.00
2023-03-17T00:16:58.081Z,100.00
2023-03-17T00:19:32.400Z,100.00
2023-03-17T00:22:01.054Z,100.00
2023-03-17T00:24:29.879Z,100.00
2023-03-17T00:26:58.193Z,100.00
2023-03-17T00:29:28.095Z,100.00
2023-03-17T00:31:58.288Z,100.00
2023-03-17T00:34:27.383Z,100.00
2023-03-17T00:36:56.187Z,100.00
2023-03-17T00:39:25.509Z,100.00
2023-03-17T00:41:53.597Z,100.00
2023-03-17T00:44:21.715Z,100.00
2023-03-17T00:46:51.836Z,100.00
2023-03-17T00:49:22.197Z,100.00
2023-03-17T00:51:51.103Z,100.00
2023-03-17T00:54:20.866Z,100.00
2023-03-17T00:56:51.063Z,100.00
2023-03-17T00:59:27.269Z,100.00
2023-03-17T01:01:57.553Z,100.00
2023-03-17T01:04:25.826Z,100.00
2023-03-17T01:06:54.448Z,100.00
2023-03-17T01:09:26.734Z,100.00
2023-03-17T01:11:55.928Z,100.00
2023-03-17T01:14:24.925Z,100.00
2023-03-17T01:16:55.241Z,100.00
2023-03-17T01:19:24.910Z,100.00
2023-03-17T01:21:53.112Z,100.00
2023-03-17T01:24:21.252Z,100.00
2023-03-17T01:26:49.325Z,100.00
2023-03-17T01:29:17.638Z,100.00
2023-03-17T01:31:46.316Z,100.00
2023-03-17T01:34:14.415Z,100.00
2023-03-17T01:36:43.910Z,100.00
2023-03-17T01:39:12.986Z,100.00
2023-03-17T01:41:41.244Z,100.00
2023-03-17T01:44:16.041Z,100.00
2023-03-17T01:46:45.600Z,100.00
2023-03-17T01:49:21.168Z,100.00
2023-03-17T01:51:58.887Z,100.00
2023-03-17T01:54:35.897Z,100.00
2023-03-17T01:57:09.352Z,100.00
2023-03-17T01:59:43.741Z,100.00
2023-03-17T02:02:15.489Z,100.00
2023-03-17T02:04:43.749Z,100.00
2023-03-17T02:07:15.732Z,100.00
2023-03-17T02:09:44.800Z,100.00
2023-03-17T02:12:13.780Z,100.00
2023-03-17T02:14:41.879Z,100.00
2023-03-17T02:17:10.171Z,100.00
2023-03-17T02:19:38.986Z,100.00
2023-03-17T02:22:08.834Z,100.00
2023-03-17T02:24:40.574Z,100.00
2023-03-17T02:27:13.764Z,100.00
2023-03-17T02:29:42.656Z,100.00
2023-03-17T02:32:11.252Z,100.00
2023-03-17T02:34:39.847Z,100.00
2023-03-17T02:37:09.655Z,100.00
2023-03-17T02:39:38.373Z,100.00
2023-03-17T02:42:07.560Z,100.00
2023-03-17T02:44:35.698Z,100.00
2023-03-17T02:47:04.659Z,100.00
2023-03-17T02:49:33.529Z,100.00
2023-03-17T02:52:01.721Z,100.00
2023-03-17T02:54:31.570Z,100.00
2023-03-17T02:57:00.029Z,100.00
2023-03-17T02:59:28.355Z,100.00
2023-03-17T03:01:57.337Z,100.00
2023-03-17T03:04:26.357Z,100.00
2023-03-17T03:06:54.841Z,100.00
2023-03-17T03:09:23.099Z,100.00
2023-03-17T03:11:52.707Z,100.00
2023-03-17T03:14:20.904Z,100.00
2023-03-17T03:16:49.035Z,100.00
2023-03-17T03:19:17.671Z,100.00
2023-03-17T03:21:46.254Z,100.00
2023-03-17T03:24:14.511Z,100.00
2023-03-17T03:26:42.598Z,100.00
2023-03-17T03:29:12.327Z,100.00
2023-03-17T03:31:40.390Z,100.00
2023-03-17T03:34:08.578Z,100.00
2023-03-17T03:36:37.098Z,100.00
2023-03-17T03:39:05.343Z,100.00
2023-03-17T03:41:33.423Z,100.00
2023-03-17T03:44:01.602Z,100.00
2023-03-17T03:46:31.296Z,100.00
2023-03-17T03:48:59.439Z,100.00
2023-03-17T03:51:27.604Z,100.00
2023-03-17T03:53:55.759Z,100.00
2023-03-17T03:56:23.930Z,100.00
2023-03-17T03:58:52.441Z,100.00
2023-03-17T04:01:20.586Z,100.00
2023-03-17T04:03:50.206Z,100.00
2023-03-17T04:06:18.555Z,100.00
2023-03-17T04:08:46.832Z,100.00
2023-03-17T04:11:14.919Z,100.00
2023-03-17T04:13:43.137Z,98.88
2023-03-17T04:16:11.297Z,96.70
2023-03-17T04:18:39.463Z,94.19
2023-03-17T04:21:09.586Z,94.18
2023-03-17T04:23:37.691Z,94.05
2023-03-17T04:26:06.028Z,93.80
2023-03-17T04:28:34.196Z,92.42
2023-03-17T04:31:02.436Z,91.74
2023-03-17T04:33:30.645Z,89.95
2023-03-17T04:35:58.833Z,88.74
2023-03-17T04:38:28.283Z,88.44
2023-03-17T04:40:56.414Z,88.44
2023-03-17T04:43:24.572Z,87.58
2023-03-17T04:45:52.733Z,87.15
2023-03-17T04:48:21.156Z,87.46
2023-03-17T04:50:49.268Z,86.15
2023-03-17T04:53:17.826Z,86.04
2023-03-17T04:55:47.580Z,86.25
2023-03-17T04:58:29.818Z,86.92
2023-03-17T05:00:59.570Z,86.93
2023-03-17T05:03:28.642Z,86.13
2023-03-17T05:05:57.581Z,85.55
2023-03-17T05:08:26.390Z,84.31
2023-03-17T05:10:56.282Z,84.05
2023-03-17T05:13:24.892Z,84.17
2023-03-17T05:15:55.240Z,84.18
2023-03-17T05:18:26.387Z,83.37
2023-03-17T05:20:54.554Z,81.92
2023-03-17T05:23:23.268Z,81.98
2023-03-17T05:25:52.732Z,77.88
2023-03-17T05:28:22.248Z,78.96
2023-03-17T05:30:50.842Z,78.70
2023-03-17T05:33:18.997Z,79.10
2023-03-17T05:35:47.712Z,79.68
2023-03-17T05:38:16.534Z,79.08
2023-03-17T05:40:45.728Z,78.51
2023-03-17T05:43:14.095Z,78.78
2023-03-17T05:45:43.665Z,78.56
2023-03-17T05:48:12.469Z,78.95
2023-03-17T05:50:41.742Z,79.78
2023-03-17T05:53:10.687Z,79.40
2023-03-17T05:55:38.922Z,78.27
2023-03-17T05:58:06.944Z,76.81
2023-03-17T06:00:35.749Z,74.95
2023-03-17T06:03:05.670Z,73.02
2023-03-17T06:05:33.885Z,71.35
2023-03-17T06:08:02.106Z,69.39
2023-03-17T06:10:30.357Z,69.25
2023-03-17T06:12:59.045Z,68.82
2023-03-17T06:15:27.740Z,67.82
2023-03-17T06:17:55.722Z,67.89
2023-03-17T06:20:25.349Z,65.44
2023-03-17T06:23:03.851Z,66.23
2023-03-17T06:25:33.824Z,65.68
2023-03-17T06:28:03.827Z,64.38
2023-03-17T06:30:33.134Z,64.68
2023-03-17T06:33:02.097Z,64.74
2023-03-17T06:35:32.305Z,63.72
2023-03-17T06:38:01.167Z,63.34
2023-03-17T06:40:31.201Z,62.54
2023-03-17T06:42:59.718Z,62.93
2023-03-17T06:45:28.046Z,62.96
2023-03-17T06:47:56.319Z,63.60
2023-03-17T06:50:24.296Z,62.69
2023-03-17T06:52:53.712Z,62.99
2023-03-17T06:55:22.480Z,62.41
2023-03-17T06:57:51.480Z,60.99
2023-03-17T07:00:21.170Z,59.84
2023-03-17T07:02:49.619Z,59.48
2023-03-17T07:05:17.996Z,59.91
2023-03-17T07:07:46.438Z,58.83
2023-03-17T07:10:17.368Z,58.05
2023-03-17T07:12:45.906Z,57.11
2023-03-17T07:15:17.269Z,56.37
2023-03-17T07:17:46.875Z,55.21
2023-03-17T07:20:15.157Z,55.02
2023-03-17T07:22:43.201Z,55.23
2023-03-17T07:25:12.262Z,55.72
2023-03-17T07:27:41.730Z,55.53
2023-03-17T07:30:10.903Z,54.67
2023-03-17T07:32:38.889Z,53.43
2023-03-17T07:35:08.180Z,54.27
2023-03-17T07:37:36.647Z,53.63
2023-03-17T07:40:06.418Z,53.82
2023-03-17T07:42:34.533Z,53.68
2023-03-17T07:45:06.079Z,54.44
2023-03-17T07:47:34.080Z,55.25
2023-03-17T07:50:02.382Z,54.16
2023-03-17T07:52:30.830Z,53.54
2023-03-17T07:54:59.497Z,52.05
2023-03-17T07:57:27.646Z,52.12
2023-03-17T07:59:55.977Z,53.90
2023-03-17T08:02:25.484Z,54.48
2023-03-17T08:04:56.742Z,55.11
2023-03-17T08:07:24.798Z,54.01
2023-03-17T08:09:52.950Z,54.80
2023-03-17T08:12:21.988Z,56.37
2023-03-17T08:14:50.454Z,55.11
2023-03-17T08:17:18.827Z,55.12
2023-03-17T08:19:48.272Z,54.47
2023-03-17T08:22:16.294Z,54.62
2023-03-17T08:24:44.755Z,54.67
2023-03-17T08:27:13.569Z,55.23
2023-03-17T08:29:41.735Z,55.40
2023-03-17T08:32:10.538Z,54.08
2023-03-17T08:34:38.730Z,54.92
2023-03-17T08:37:11.311Z,55.17
2023-03-17T08:39:39.711Z,53.89
2023-03-17T08:42:08.334Z,53.92
2023-03-17T08:44:36.413Z,53.98
2023-03-17T08:47:05.022Z,52.92
2023-03-17T08:49:36.666Z,52.54
2023-03-17T08:52:05.217Z,52.61
2023-03-17T08:54:36.106Z,52.53
2023-03-17T08:57:04.286Z,52.16
2023-03-17T08:59:32.865Z,52.37
2023-03-17T09:02:01.123Z,52.22
2023-03-17T09:04:29.184Z,52.95
2023-03-17T09:07:04.798Z,53.18
2023-03-17T09:09:35.746Z,51.65
2023-03-17T09:12:06.416Z,51.06
2023-03-17T09:14:42.891Z,51.21
2023-03-17T09:17:11.956Z,50.42
2023-03-17T09:19:40.553Z,50.37
2023-03-17T09:22:08.849Z,51.46
2023-03-17T09:24:38.357Z,50.68
2023-03-17T09:27:06.491Z,49.80
2023-03-17T09:29:34.917Z,48.74
2023-03-17T09:32:02.952Z,48.95
2023-03-17T09:34:31.474Z,49.18
2023-03-17T09:36:59.955Z,49.60
2023-03-17T09:39:30.358Z,50.30
2023-03-17T09:42:24.382Z,49.80
2023-03-17T09:45:13.551Z,47.73
2023-03-17T09:47:57.437Z,48.05
2023-03-17T09:50:28.416Z,49.42
2023-03-17T09:52:58.569Z,50.10
2023-03-17T09:55:30.396Z,50.17
2023-03-17T09:58:03.468Z,50.75
2023-03-17T10:00:31.977Z,49.94
2023-03-17T10:03:00.301Z,49.75
2023-03-17T10:05:31.521Z,49.75
2023-03-17T10:08:10.841Z,49.29
2023-03-17T10:10:48.495Z,49.21
2023-03-17T10:13:28.995Z,48.82
2023-03-17T10:16:00.111Z,47.80
2023-03-17T10:18:31.458Z,45.65
2023-03-17T10:21:03.449Z,45.68
2023-03-17T10:23:36.475Z,44.50
2023-03-17T10:26:26.193Z,44.84
2023-03-17T10:28:56.068Z,45.48
2023-03-17T10:31:30.823Z,45.93
2023-03-17T10:34:08.572Z,46.04
2023-03-17T10:36:40.243Z,45.43
2023-03-17T10:39:10.951Z,44.45
2023-03-17T10:41:41.969Z,44.89
2023-03-17T10:44:22.109Z,46.18
2023-03-17T10:46:56.465Z,44.73
2023-03-17T10:49:26.855Z,44.83
2023-03-17T10:51:55.684Z,44.80
2023-03-17T10:54:26.547Z,44.56
2023-03-17T10:57:02.558Z,42.51
2023-03-17T10:59:38.807Z,43.95
2023-03-17T11:02:19.443Z,44.09
2023-03-17T11:04:48.453Z,43.98
2023-03-17T11:07:19.529Z,44.03
2023-03-17T11:09:51.716Z,43.40
2023-03-17T11:12:25.627Z,41.95
2023-03-17T11:15:01.242Z,41.13
2023-03-17T11:17:41.501Z,42.03
2023-03-17T11:20:26.434Z,41.53
2023-03-17T11:23:02.247Z,40.92
2023-03-17T11:25:32.511Z,40.82
2023-03-17T11:28:16.214Z,39.90
2023-03-17T11:30:55.865Z,38.74
2023-03-17T11:33:34.895Z,38.96
2023-03-17T11:36:09.695Z,38.71
2023-03-17T11:38:41.934Z,39.23
2023-03-17T11:41:35.794Z,38.01
2023-03-17T11:44:47.754Z,37.72
2023-03-17T11:47:37.237Z,38.97
2023-03-17T11:50:17.880Z,39.34
2023-03-17T11:52:59.117Z,37.61
2023-03-17T11:55:37.755Z,36.69
2023-03-17T11:58:10.669Z,37.13
2023-03-17T12:00:45.540Z,36.85
2023-03-17T12:03:20.759Z,35.82
2023-03-17T12:05:55.786Z,35.58
2023-03-17T12:08:25.998Z,35.16
2023-03-17T12:10:56.893Z,36.01
2023-03-17T12:13:31.185Z,34.45
2023-03-17T12:16:06.748Z,34.20
2023-03-17T12:18:39.966Z,34.30
2023-03-17T12:21:14.712Z,34.32
2023-03-17T12:23:49.661Z,34.49
2023-03-17T12:26:21.210Z,33.98
2023-03-17T12:28:55.626Z,33.56
2023-03-17T12:31:29.234Z,31.56
2023-03-17T12:34:06.527Z,32.79
2023-03-17T12:36:36.920Z,33.08
2023-03-17T12:39:10.566Z,33.29
2023-03-17T12:41:52.291Z,33.49
2023-03-17T12:44:34.493Z,34.17
2023-03-17T12:47:36.816Z,32.79
2023-03-17T12:50:37.953Z,33.34
2023-03-17T12:53:26.722Z,32.14
2023-03-17T12:55:58.003Z,31.91
2023-03-17T12:58:36.540Z,30.95
2023-03-17T13:01:17.457Z,28.04
2023-03-17T13:04:02.509Z,25.99
2023-03-17T13:06:39.945Z,23.59
2023-03-17T13:09:43.549Z,20.56
2023-03-17T13:12:44.972Z,18.10
2023-03-17T13:15:24.645Z,15.64
2023-03-17T13:17:53.928Z,15.75
2023-03-17T13:20:22.532Z,15.03
2023-03-17T13:23:13.821Z,12.42
2023-03-17T13:25:53.521Z,12.59
2023-03-17T13:28:27.560Z,12.65
2023-03-17T13:31:12.447Z,12.08
2023-03-17T13:33:46.591Z,11.79
2023-03-17T13:36:23.051Z,12.83
2023-03-17T13:39:19.398Z,10.75
2023-03-17T13:42:18.606Z,10.06
2023-03-17T13:45:07.468Z,9.50
2023-03-17T13:47:38.396Z,9.63
2023-03-17T13:50:10.530Z,8.94
2023-03-17T13:52:44.111Z,9.24
2023-03-17T13:55:36.134Z,9.14
2023-03-17T13:58:26.380Z,8.73
2023-03-17T14:01:00.908Z,8.28
2023-03-17T14:03:35.237Z,8.73
2023-03-17T14:06:06.866Z,8.41
2023-03-17T14:08:36.732Z,8.15
2023-03-17T14:11:18.069Z,8.25
2023-03-17T14:13:53.028Z,7.95
2023-03-17T14:16:27.109Z,8.66
2023-03-17T14:18:59.488Z,9.46
2023-03-17T14:21:32.377Z,8.90
2023-03-17T14:24:04.091Z,8.81
2023-03-17T14:26:34.063Z,8.78
2023-03-17T14:29:04.839Z,9.15
2023-03-17T14:31:32.998Z,9.55
2023-03-17T14:34:03.202Z,9.71
2023-03-17T14:36:34.720Z,9.82
2023-03-17T14:39:02.711Z,9.95
2023-03-17T14:41:32.833Z,9.78
2023-03-17T14:44:03.352Z,9.91
2023-03-17T14:46:34.163Z,9.25
2023-03-17T14:49:04.797Z,9.25
2023-03-17T14:51:36.229Z,10.20
2023-03-17T14:54:06.472Z,10.96
2023-03-17T14:56:38.084Z,11.11
2023-03-17T14:59:09.693Z,10.99
2023-03-17T15:01:40.279Z,10.88
2023-03-17T15:04:13.223Z,10.79
2023-03-17T15:06:50.445Z,10.86
2023-03-17T15:09:20.364Z,10.89
2023-03-17T15:11:49.645Z,10.89
2023-03-17T15:14:22.820Z,10.95
2023-03-17T15:16:53.044Z,10.69
2023-03-17T15:19:24.091Z,11.27
2023-03-17T15:21:52.326Z,11.51
2023-03-17T15:24:27.026Z,11.43
2023-03-17T15:27:05.753Z,11.77
2023-03-17T15:29:35.382Z,11.86
2023-03-17T15:32:12.143Z,11.70
2023-03-17T15:34:40.150Z,12.21
2023-03-17T15:37:16.196Z,13.25
2023-03-17T15:39:44.226Z,14.28
2023-03-17T15:42:12.497Z,14.97
2023-03-17T15:44:42.022Z,16.11
2023-03-17T15:47:15.184Z,17.92
2023-03-17T15:49:43.559Z,19.40
2023-03-17T15:52:25.025Z,20.99
2023-03-17T15:54:54.074Z,22.40
2023-03-17T15:57:22.688Z,23.77
2023-03-17T15:59:52.637Z,25.48
2023-03-17T16:02:30.633Z,26.42
2023-03-17T16:04:59.461Z,27.11
2023-03-17T16:07:27.510Z,29.32
2023-03-17T16:09:55.830Z,30.37
2023-03-17T16:12:24.082Z,31.41
2023-03-17T16:14:53.628Z,32.77
2023-03-17T16:17:26.981Z,32.63
2023-03-17T16:19:56.057Z,33.41
2023-03-17T16:22:39.064Z,35.12
2023-03-17T16:25:18.229Z,34.74
2023-03-17T16:27:46.756Z,35.40
2023-03-17T16:30:20.445Z,36.45
2023-03-17T16:32:49.330Z,36.61
2023-03-17T16:35:20.107Z,37.88
2023-03-17T16:37:48.897Z,38.51
2023-03-17T16:40:22.741Z,39.06
2023-03-17T16:42:51.665Z,39.46
2023-03-17T16:45:28.800Z,40.83
2023-03-17T16:47:57.855Z,40.72
2023-03-17T16:50:27.697Z,41.07
2023-03-17T16:52:56.055Z,42.25
2023-03-17T16:55:25.456Z,42.77
2023-03-17T16:57:56.664Z,44.04
2023-03-17T17:00:30.026Z,45.05
2023-03-17T17:02:58.656Z,45.05
2023-03-17T17:05:28.589Z,45.54
2023-03-17T17:07:58.337Z,45.90
2023-03-17T17:10:28.580Z,46.36
2023-03-17T17:12:56.897Z,47.14
2023-03-17T17:15:26.712Z,48.51
2023-03-17T17:17:58.410Z,48.87
2023-03-17T17:20:30.979Z,48.73
2023-03-17T17:22:59.678Z,48.75
2023-03-17T17:25:28.053Z,49.73
2023-03-17T17:27:56.476Z,49.54
2023-03-17T17:30:28.168Z,49.78
2023-03-17T17:32:58.068Z,50.01
2023-03-17T17:35:27.289Z,50.96
2023-03-17T17:37:55.881Z,51.40
2023-03-17T17:40:25.632Z,51.98
2023-03-17T17:42:54.500Z,52.21
2023-03-17T17:45:23.170Z,52.43
2023-03-17T17:47:52.743Z,53.39
2023-03-17T17:50:24.458Z,54.44
2023-03-17T17:52:52.992Z,54.46
2023-03-17T17:55:21.280Z,55.30
2023-03-17T17:57:52.315Z,55.59
2023-03-17T18:00:21.768Z,56.21
2023-03-17T18:02:50.692Z,57.01
2023-03-17T18:05:20.364Z,57.67
2023-03-17T18:07:48.500Z,58.37
2023-03-17T18:10:19.309Z,59.56
2023-03-17T18:12:47.408Z,59.57
2023-03-17T18:15:15.676Z,60.45
2023-03-17T18:17:44.078Z,60.98
2023-03-17T18:20:13.738Z,61.09
2023-03-17T18:22:43.384Z,61.80
2023-03-17T18:25:14.318Z,62.47
2023-03-17T18:27:43.505Z,62.85
2023-03-17T18:30:14.736Z,63.43
2023-03-17T18:32:44.315Z,64.22
2023-03-17T18:35:17.299Z,64.61
2023-03-17T18:37:47.006Z,64.49
2023-03-17T18:40:18.768Z,65.74
2023-03-17T18:42:47.796Z,65.86
2023-03-17T18:45:16.376Z,66.49
2023-03-17T18:47:44.485Z,66.88
2023-03-17T18:50:15.634Z,70.89
2023-03-17T18:52:44.936Z,73.34
2023-03-17T18:55:16.584Z,74.79
2023-03-17T18:57:46.514Z,74.44
2023-03-17T19:00:17.472Z,76.27
2023-03-17T19:02:46.306Z,78.27
2023-03-17T19:05:15.464Z,79.17
2023-03-17T19:07:43.578Z,79.86
2023-03-17T19:10:15.177Z,81.84
2023-03-17T19:12:45.476Z,81.32
2023-03-17T19:15:14.694Z,81.10
2023-03-17T19:17:43.219Z,81.24
2023-03-17T19:20:13.245Z,80.42
2023-03-17T19:22:41.734Z,80.07
2023-03-17T19:25:11.475Z,81.54
2023-03-17T19:27:41.422Z,82.49
2023-03-17T19:30:10.732Z,83.12
2023-03-17T19:32:38.866Z,83.53
2023-03-17T19:35:08.692Z,83.07
2023-03-17T19:37:38.208Z,83.94
2023-03-17T19:40:08.198Z,83.86
2023-03-17T19:42:36.350Z,84.53
2023-03-17T19:45:09.224Z,84.96
2023-03-17T19:47:37.392Z,84.64
2023-03-17T19:50:05.870Z,85.12
2023-03-17T19:52:33.950Z,85.92
2023-03-17T19:55:02.085Z,85.34
2023-03-17T19:57:31.249Z,84.90
2023-03-17T20:00:00.269Z,83.97
2023-03-17T20:02:29.760Z,83.12
2023-03-17T20:04:57.706Z,82.81
2023-03-17T20:07:25.647Z,82.78
2023-03-17T20:09:54.237Z,82.86
2023-03-17T20:12:22.581Z,83.14
2023-03-17T20:14:51.137Z,83.24
2023-03-17T20:17:20.080Z,82.71
2023-03-17T20:19:49.695Z,82.60
2023-03-17T20:22:17.677Z,83.33
2023-03-17T20:24:46.038Z,84.65
2023-03-17T20:27:15.406Z,86.36
2023-03-17T20:29:44.065Z,87.63
2023-03-17T20:32:14.881Z,87.24
2023-03-17T20:34:43.746Z,86.92
2023-03-17T20:37:14.885Z,86.88
2023-03-17T20:39:44.108Z,86.46
2023-03-17T20:42:14.643Z,86.47
2023-03-17T20:44:43.101Z,87.01
2023-03-17T20:47:11.472Z,87.00
2023-03-17T20:49:39.503Z,87.42
2023-03-17T20:52:08.696Z,87.77
2023-03-17T20:54:38.947Z,88.44
2023-03-17T20:57:07.331Z,88.43
2023-03-17T20:59:36.389Z,89.97
2023-03-17T21:02:05.021Z,90.64
2023-03-17T21:04:33.172Z,91.39
2023-03-17T21:07:01.224Z,92.39
2023-03-17T21:09:29.395Z,93.09
2023-03-17T21:11:58.772Z,92.91
2023-03-17T21:14:26.745Z,93.42
2023-03-17T21:16:55.185Z,94.59
2023-03-17T21:19:23.525Z,94.15
2023-03-17T21:21:51.539Z,95.01
2023-03-17T21:24:27.583Z,95.80
2023-03-17T21:26:55.915Z,95.49
2023-03-17T21:29:25.353Z,95.99
2023-03-17T21:31:54.309Z,96.34
2023-03-17T21:34:24.433Z,96.01
2023-03-17T21:36:52.876Z,95.77
2023-03-17T21:39:21.624Z,95.50
2023-03-17T21:41:51.005Z,95.25
2023-03-17T21:44:20.109Z,95.07
2023-03-17T21:46:50.969Z,94.78
2023-03-17T21:49:19.668Z,93.63
2023-03-17T21:51:48.298Z,93.48
2023-03-17T21:54:16.500Z,93.39
2023-03-17T21:56:44.788Z,93.48
2023-03-17T21:59:14.066Z,93.84
2023-03-17T22:01:43.658Z,93.94
2023-03-17T22:04:14.209Z,94.14
2023-03-17T22:06:42.526Z,94.46
2023-03-17T22:09:11.740Z,95.31
2023-03-17T22:11:39.918Z,95.86
2023-03-17T22:14:08.094Z,97.48
2023-03-17T22:16:36.356Z,97.54
2023-03-17T22:19:04.588Z,99.54
2023-03-17T22:21:34.128Z,99.44
2023-03-17T22:24:02.133Z,100.00
2023-03-17T22:26:30.469Z,100.00
2023-03-17T22:28:58.505Z,100.00
2023-03-17T22:31:29.643Z,100.00
2023-03-17T22:33:59.384Z,100.00
2023-03-17T22:36:28.168Z,100.00
2023-03-17T22:38:58.434Z,100.00
2023-03-17T22:41:29.968Z,100.00
2023-03-17T22:43:58.417Z,100.00
2023-03-17T22:46:27.336Z,100.00
2023-03-17T22:48:55.902Z,100.00
2023-03-17T22:51:26.736Z,100.00
2023-03-17T22:53:57.511Z,100.00
2023-03-17T22:56:26.595Z,100.00
2023-03-17T22:58:55.205Z,100.00
2023-03-17T23:01:25.906Z,100.00
2023-03-17T23:03:54.402Z,100.00
2023-03-17T23:06:22.984Z,100.00
2023-03-17T23:08:50.983Z,100.00
2023-03-17T23:11:23.199Z,100.00
2023-03-17T23:13:52.724Z,100.00
2023-03-17T23:16:22.147Z,100.00
2023-03-17T23:18:50.905Z,100.00
2023-03-17T23:21:23.876Z,100.00
2023-03-17T23:23:52.003Z,100.00
2023-03-17T23:26:22.031Z,100.00
2023-03-17T23:28:50.129Z,100.00
2023-03-17T23:31:19.590Z,100.00
2023-03-17T23:33:48.013Z,100.00
2023-03-17T23:36:16.341Z,100.00
2023-03-17T23:38:45.568Z,100.00
2023-03-17T23:41:14.651Z,100.00
2023-03-17T23:43:44.116Z,100.00
2023-03-17T23:46:13.962Z,100.00
2023-03-17T23:48:43.019Z,100.00
2023-03-17T23:51:12.519Z,100.00
2023-03-17T23:53:41.880Z,100.00
2023-03-17T23:56:11.583Z,100.00
2023-03-17T23:58:39.816Z,100.00
